Time;durP1;ratioP1;P1;durP2;ratioP2;P2;SDS_P1;SDS_P2;PMS_P1;PMS_P2;Temp;Humidity;BMP_temperature;BMP_pressure;BME280_temperature;BME280_humidity;BME280_pressure;Samples;Min_cycle;Max_cycle;Signal;HPM_P1;HPM_P2
2022/04/17 00:01:39;;;;;;;;;;;;;;;9.08;38.24;100494.84;5182505;27;34800;-89
2022/04/17 00:04:14;;;;;;;;;;;;;;;8.96;37.63;100496.53;5184640;27;35318;-90
2022/04/17 00:06:43;;;;;;;;;;;;;;;8.40;38.24;100485.75;5187997;27;33971;-89
2022/04/17 00:09:11;;;;;;;;;;;;;;;8.37;39.18;100483.12;5181000;27;33550;-89
2022/04/17 00:11:41;;;;;;;;;;;;;;;8.41;38.92;100492.66;5181057;27;34360;-90
2022/04/17 00:14:12;;;;;;;;;;;;;;;8.81;37.49;100482.62;5182946;27;33963;-90
2022/04/17 00:16:40;;;;;;;;;;;;;;;8.89;36.77;100484.41;5181327;27;33796;-88
2022/04/17 00:19:12;;;;;;;;;;;;;;;8.71;37.02;100481.69;5185888;27;33923;-89
2022/04/17 00:21:42;;;;;;;;;;;;;;;8.67;37.53;100483.38;5179888;27;34611;-89
2022/04/17 00:24:13;;;;;;;;;;;;;;;8.76;36.40;100482.59;5179839;27;34369;-89
2022/04/17 00:26:42;;;;;;;;;;;;;;;8.85;35.21;100484.37;5181360;27;34184;-88
2022/04/17 00:29:10;;;;;;;;;;;;;;;8.75;34.74;100475.69;5208414;27;34759;-89
2022/04/17 00:31:39;;;;;;;;;;;;;;;8.80;34.85;100480.91;5205807;27;33016;-90
2022/04/17 00:34:08;;;;;;;;;;;;;;;8.36;34.86;100477.09;5198895;27;34176;-90
2022/04/17 00:36:44;;;;;;;;;;;;;;;8.31;35.51;100481.31;5206903;27;33274;-90
2022/04/17 00:39:18;;;;;;;;;;;;;;;8.53;35.05;100479.84;5205971;27;33959;-91
2022/04/17 00:41:47;;;;;;;;;;;;;;;8.15;35.89;100480.34;5206704;27;34665;-91
2022/04/17 00:44:16;;;;;;;;;;;;;;;8.02;35.52;100475.88;5212059;27;34432;-90
2022/04/17 00:46:44;;;;;;;;;;;;;;;8.17;34.56;100467.44;5204498;27;33285;-90
2022/04/17 00:49:13;;;;;;;;;;;;;;;7.73;36.01;100475.59;5205705;27;34633;-89
2022/04/17 00:51:42;;;;;;;;;;;;;;;8.42;34.80;100482.31;5207696;27;35018;-89
2022/04/17 00:54:12;;;;;;;;;;;;;;;8.73;34.56;100467.91;5206613;27;34511;-89
2022/04/17 00:56:42;;;;;;;;;;;;;;;8.50;34.94;100464.28;5212447;27;33655;-90
2022/04/17 00:59:10;;;;;;;;;;;;;;;8.26;34.92;100454.56;5205559;27;33088;-89
2022/04/17 01:01:39;;;;;;;;;;;;;;;8.15;34.66;100453.63;5205458;27;33939;-89
2022/04/17 01:04:07;;;;;;;;;;;;;;;7.79;35.27;100457.59;5206740;27;34282;-90
2022/04/17 01:06:36;;;;;;;;;;;;;;;8.33;34.33;100461.53;5207053;27;33319;-90
2022/04/17 01:09:09;;;;;;;;;;;;;;;7.58;35.28;100447.88;5211032;27;34200;-90
2022/04/17 01:11:45;;;;;;;;;;;;;;;7.97;34.90;100455.16;5211401;27;34582;-90
2022/04/17 01:14:21;;;;;;;;;;;;;;;8.02;34.80;100457.81;5207286;27;33050;-91
2022/04/17 01:16:54;;;;;;;;;;;;;;;8.27;33.80;100452.00;5207258;27;33608;-91
2022/04/17 01:19:27;;;;;;;;;;;;;;;8.23;33.55;100452.84;5207226;27;34883;-92
2022/04/17 01:22:36;;;;;;;;;;;;;;;8.57;34.02;100452.28;5145095;27;33233;-90
2022/04/17 01:28:15;;;;;;;;;;;;;;;7.96;35.06;100461.19;5163185;27;33842;-89
2022/04/17 01:31:44;;;;;;;;;;;;;;;;;;;;;
2022/04/17 01:49:00;;;;;;;;;;;;;;;8.06;35.51;100446.66;5047271;28;36260;-91
2022/04/17 01:51:38;;;;;;;;;;;;;;;8.45;33.93;100442.69;5105667;28;34679;-91
2022/04/17 01:54:12;;;;;;;;;;;;;;;8.90;33.60;100446.47;5101179;28;33311;-91
2022/04/17 01:56:42;;;;;;;;;;;;;;;8.84;33.21;100446.41;5101168;28;34041;-89
2022/04/17 01:59:12;;;;;;;;;;;;;;;8.41;33.77;100441.81;5100645;28;34116;-89
2022/04/17 02:01:41;;;;;;;;;;;;;;;8.90;33.96;100438.69;5115501;27;34304;-90
2022/04/17 02:04:10;;;;;;;;;;;;;;;8.75;34.88;100444.66;5146899;27;33048;-90
2022/04/17 02:06:40;;;;;;;;;;;;;;;9.16;32.97;100426.75;5142517;27;34128;-90
2022/04/17 02:09:13;;;;;;;;;;;;;;;8.77;34.16;100432.59;5141113;27;34117;-90
2022/04/17 02:11:41;;;;;;;;;;;;;;;8.73;33.14;100436.87;5142400;27;34401;-90
2022/04/17 02:14:12;;;;;;;;;;;;;;;8.98;34.13;100431.81;5141504;27;34111;-90
2022/04/17 02:16:41;;;;;;;;;;;;;;;9.04;32.86;100424.09;5141952;27;34661;-90
2022/04/17 02:19:13;;;;;;;;;;;;;;;8.67;33.77;100423.00;5191998;27;33401;-89
2022/04/17 02:21:44;;;;;;;;;;;;;;;8.43;34.60;100416.84;5206515;27;33644;-90
2022/04/17 02:24:12;;;;;;;;;;;;;;;9.13;32.47;100418.97;5205911;27;33304;-89
2022/04/17 02:26:41;;;;;;;;;;;;;;;8.57;32.92;100421.22;5206872;27;34645;-89
2022/04/17 02:29:09;;;;;;;;;;;;;;;8.83;33.26;100421.41;5207601;27;34427;-90
2022/04/17 02:31:39;;;;;;;;;;;;;;;8.62;32.75;100414.38;5212392;27;35055;-89
2022/04/17 02:34:08;;;;;;;;;;;;;;;8.36;33.42;100419.31;5206715;27;33628;-90
2022/04/17 02:36:39;;;;;;;;;;;;;;;7.85;34.38;100401.69;5206598;27;34050;-91
2022/04/17 02:39:07;;;;;;;;;;;;;;;8.04;32.91;100399.25;5206055;27;33208;-90
2022/04/17 02:41:36;;;;;;;;;;;;;;;7.85;33.79;100386.19;5207473;27;35109;-90
2022/04/17 02:44:06;;;;;;;;;;;;;;;7.74;33.96;100385.22;5212566;27;34325;-91
2022/04/17 02:49:22;;;;;;;;;;;;;;;7.51;33.83;100377.22;5209195;27;34971;-90
2022/04/17 02:51:50;;;;;;;;;;;;;;;6.99;34.57;100381.81;5209838;27;34451;-91
2022/04/17 02:54:19;;;;;;;;;;;;;;;7.04;35.07;100385.31;5210217;27;34107;-91
2022/04/17 02:56:49;;;;;;;;;;;;;;;7.48;34.32;100379.78;5209162;27;36382;-89
2022/04/17 02:59:19;;;;;;;;;;;;;;;6.92;35.08;100392.91;5213936;27;33809;-89
2022/04/17 03:07:21;;;;;;;;;;;;;;;7.09;35.12;100411.19;5209745;27;34700;-91
2022/04/17 03:09:50;;;;;;;;;;;;;;;7.08;34.86;100409.44;5208784;27;34620;-90
2022/04/17 03:12:21;;;;;;;;;;;;;;;7.01;34.74;100418.81;5208956;27;36982;-89
2022/04/17 03:14:50;;;;;;;;;;;;;;;6.90;35.02;100413.50;5209922;27;33259;-90
2022/04/17 03:17:18;;;;;;;;;;;;;;;7.02;35.30;100418.81;5211828;27;34819;-91
2022/04/17 03:19:48;;;;;;;;;;;;;;;6.92;35.12;100414.41;5208657;27;33619;-89
2022/04/17 03:22:17;;;;;;;;;;;;;;;6.82;35.02;100413.41;5210003;27;34221;-91
2022/04/17 03:24:45;;;;;;;;;;;;;;;7.22;34.87;100420.78;5209638;27;35785;-88
2022/04/17 03:27:14;;;;;;;;;;;;;;;6.98;35.21;100421.34;5207885;27;35181;-89
2022/04/17 03:29:42;;;;;;;;;;;;;;;6.77;35.31;100427.09;5214044;27;34237;-89
2022/04/17 03:32:10;;;;;;;;;;;;;;;7.31;34.87;100422.63;5208157;27;34435;-89
2022/04/17 03:34:39;;;;;;;;;;;;;;;7.22;35.17;100428.53;5207592;27;33013;-89
2022/04/17 03:37:09;;;;;;;;;;;;;;;7.13;35.29;100438.72;5208091;27;34887;-90
2022/04/17 03:39:37;;;;;;;;;;;;;;;7.42;34.60;100426.22;5208413;27;34033;-90
2022/04/17 03:42:06;;;;;;;;;;;;;;;6.96;35.24;100436.81;5214402;27;34202;-89
2022/04/17 03:44:35;;;;;;;;;;;;;;;6.69;35.66;100434.69;5208431;27;34331;-90
2022/04/17 03:47:03;;;;;;;;;;;;;;;6.70;36.07;100433.00;5208234;27;34339;-90
2022/04/17 03:49:32;;;;;;;;;;;;;;;6.59;36.45;100443.16;5208546;27;35053;-89
2022/04/17 03:52:00;;;;;;;;;;;;;;;6.73;36.08;100439.06;5208510;27;33927;-91
2022/04/17 03:54:30;;;;;;;;;;;;;;;6.93;35.65;100435.91;5214489;27;33487;-89
2022/04/17 03:56:58;;;;;;;;;;;;;;;6.75;35.47;100446.84;5207358;27;34206;-91
2022/04/17 03:59:27;;;;;;;;;;;;;;;6.92;35.23;100445.34;5206503;27;34664;-91
2022/04/17 04:01:55;;;;;;;;;;;;;;;6.90;35.52;100452.19;5206956;27;34943;-89
2022/04/17 04:04:24;;;;;;;;;;;;;;;7.17;34.84;100450.84;5206959;27;33785;-90
2022/04/17 04:06:52;;;;;;;;;;;;;;;7.11;35.52;100456.78;5212834;27;33957;-90
2022/04/17 04:09:20;;;;;;;;;;;;;;;6.70;36.82;100458.78;5206466;27;34459;-89
2022/04/17 04:11:50;;;;;;;;;;;;;;;7.38;35.34;100455.41;5207140;27;34191;-89
2022/04/17 04:14:19;;;;;;;;;;;;;;;7.26;35.01;100451.81;5206948;27;33590;-88
2022/04/17 04:16:47;;;;;;;;;;;;;;;7.10;35.29;100454.19;5207077;27;33673;-89
2022/04/17 04:19:16;;;;;;;;;;;;;;;7.03;36.46;100456.69;5209465;27;34098;-90
2022/04/17 04:21:50;;;;;;;;;;;;;;;7.11;35.72;100458.50;5212674;27;35034;-89
2022/04/17 04:24:19;;;;;;;;;;;;;;;7.19;36.29;100451.72;5207201;27;33633;-91
2022/04/17 04:28:33;;;;;;;;;;;;;;;7.45;35.81;100457.22;5207745;27;33920;-89
2022/04/17 04:29:39;;;;;;;;;;;;;;;7.38;35.72;100458.84;5206067;27;34225;-90
2022/04/17 04:32:08;;;;;;;;;;;;;;;7.46;34.87;100462.38;5207028;27;35206;-91
2022/04/17 04:34:37;;;;;;;;;;;;;;;7.18;35.63;100463.78;5211938;27;33216;-90
2022/04/17 04:37:06;;;;;;;;;;;;;;;7.63;34.92;100457.41;5213214;27;33775;-89
2022/04/17 04:39:35;;;;;;;;;;;;;;;7.33;34.81;100464.81;5205965;27;34098;-91
2022/04/17 04:42:03;;;;;;;;;;;;;;;7.16;36.34;100462.03;5205423;27;34380;-89
2022/04/17 04:44:32;;;;;;;;;;;;;;;7.26;36.17;100456.97;5207047;27;34328;-90
2022/04/17 04:47:01;;;;;;;;;;;;;;;7.32;35.26;100455.31;5214201;27;33876;-89
2022/04/17 04:49:32;;;;;;;;;;;;;;;7.04;35.93;100461.00;5221130;27;35109;-89
2022/04/17 04:52:01;;;;;;;;;;;;;;;7.15;36.02;100463.72;5206477;27;34622;-90
2022/04/17 04:54:30;;;;;;;;;;;;;;;7.27;36.02;100465.59;5206392;27;33107;-89
2022/04/17 04:56:58;;;;;;;;;;;;;;;7.38;35.27;100466.59;5206381;27;33462;-89
2022/04/17 04:59:27;;;;;;;;;;;;;;;7.07;35.38;100472.22;5209441;27;34063;-89
2022/04/17 05:01:55;;;;;;;;;;;;;;;7.59;34.63;100458.25;5224018;27;35614;-89
2022/04/17 05:04:25;;;;;;;;;;;;;;;7.73;35.04;100454.94;5206391;27;33736;-91
2022/04/17 05:06:54;;;;;;;;;;;;;;;7.71;35.07;100452.34;5206995;27;34160;-89
2022/04/17 05:09:22;;;;;;;;;;;;;;;7.73;34.24;100462.69;5206406;27;35076;-89
2022/04/17 05:11:51;;;;;;;;;;;;;;;7.96;34.37;100457.75;5211540;27;34305;-89
2022/04/17 05:14:20;;;;;;;;;;;;;;;8.30;33.28;100462.38;5214125;27;33638;-91
2022/04/17 05:16:49;;;;;;;;;;;;;;;8.65;32.65;100459.25;5207158;27;34266;-91
2022/04/17 05:19:21;;;;;;;;;;;;;;;8.61;33.20;100466.97;5206795;27;34805;-90
2022/04/17 05:21:57;;;;;;;;;;;;;;;9.22;31.45;100454.37;5207182;27;34510;-89
2022/04/17 05:24:26;;;;;;;;;;;;;;;9.49;30.69;100460.53;5207222;27;33807;-91
2022/04/17 05:26:54;;;;;;;;;;;;;;;10.36;29.50;100452.94;5205774;27;34162;-91
2022/04/17 05:29:23;;;;;;;;;;;;;;;10.92;29.04;100456.34;5211751;27;33712;-89
2022/04/17 05:31:52;;;;;;;;;;;;;;;11.36;28.34;100460.53;5206722;27;34354;-90
2022/04/17 05:34:20;;;;;;;;;;;;;;;10.59;29.23;100463.31;5206407;27;33508;-89
2022/04/17 05:36:49;;;;;;;;;;;;;;;11.28;27.67;100457.97;5208050;27;34957;-88
2022/04/17 05:39:18;;;;;;;;;;;;;;;10.35;28.81;100458.13;5208090;27;34790;-92
2022/04/17 05:41:48;;;;;;;;;;;;;;;10.84;28.34;100468.47;5211973;27;35365;-89
2022/04/17 05:44:17;;;;;;;;;;;;;;;10.99;28.19;100454.56;5206735;27;33467;-90
2022/04/17 05:46:56;;;;;;;;;;;;;;;10.17;29.78;100466.72;5206906;27;33986;-89
2022/04/17 05:49:24;;;;;;;;;;;;;;;10.45;28.86;100460.72;5206991;27;34848;-90
2022/04/17 05:51:54;;;;;;;;;;;;;;;9.79;29.75;100459.78;5207035;27;34499;-89
2022/04/17 05:54:27;;;;;;;;;;;;;;;9.37;30.29;100464.81;5207507;27;33489;-89
2022/04/17 05:56:57;;;;;;;;;;;;;;;8.78;31.86;100459.31;5211739;27;34409;-91
2022/04/17 05:59:25;;;;;;;;;;;;;;;9.16;31.65;100449.19;5206708;27;33583;-91
2022/04/17 06:01:54;;;;;;;;;;;;;;;9.13;32.35;100452.62;5207327;27;34180;-90
2022/04/17 06:04:22;;;;;;;;;;;;;;;8.08;33.39;100463.03;5209254;27;33444;-89
2022/04/17 06:06:51;;;;;;;;;;;;;;;8.38;32.79;100464.16;5208132;27;33197;-91
2022/04/17 06:09:19;;;;;;;;;;;;;;;8.60;32.32;100462.62;5212622;27;33883;-90
2022/04/17 06:11:49;;;;;;;;;;;;;;;8.62;32.53;100464.37;5207114;27;34134;-89
2022/04/17 06:14:18;;;;;;;;;;;;;;;8.92;32.11;100466.31;5209588;27;33737;-92
2022/04/17 06:16:47;;;;;;;;;;;;;;;8.22;33.40;100464.03;5207211;27;33741;-89
2022/04/17 06:19:17;;;;;;;;;;;;;;;8.97;33.09;100467.19;5206947;27;34340;-91
2022/04/17 06:21:46;;;;;;;;;;;;;;;8.58;33.58;100459.16;5211834;27;34603;-89
2022/04/17 06:24:14;;;;;;;;;;;;;;;8.99;32.23;100459.44;5206228;27;33613;-91
2022/04/17 06:26:43;;;;;;;;;;;;;;;8.90;33.85;100472.34;5205871;27;34151;-90
2022/04/17 06:29:12;;;;;;;;;;;;;;;8.84;33.85;100470.56;5206480;27;34200;-89
2022/04/17 06:31:45;;;;;;;;;;;;;;;8.53;33.93;100464.31;5207355;27;35180;-91
2022/04/17 06:34:15;;;;;;;;;;;;;;;9.31;32.27;100458.75;5209743;27;33421;-90
2022/04/17 06:36:44;;;;;;;;;;;;;;;8.94;32.29;100474.09;5211959;27;33734;-91
2022/04/17 06:39:12;;;;;;;;;;;;;;;8.78;32.41;100469.66;5206983;27;33938;-89
2022/04/17 06:41:41;;;;;;;;;;;;;;;8.69;33.13;100463.56;5205946;27;34614;-89
2022/04/17 06:44:13;;;;;;;;;;;;;;;8.51;33.47;100466.88;5205976;27;33580;-89
2022/04/17 06:46:41;;;;;;;;;;;;;;;8.65;33.95;100467.00;5206102;27;33427;-89
2022/04/17 06:49:10;;;;;;;;;;;;;;;8.78;33.72;100473.12;5212380;27;34257;-89
2022/04/17 06:51:38;;;;;;;;;;;;;;;8.94;33.35;100466.31;5206881;27;34444;-90
2022/04/17 06:54:09;;;;;;;;;;;;;;;8.75;34.04;100462.75;5207089;27;34182;-90
2022/04/17 06:56:37;;;;;;;;;;;;;;;8.62;33.69;100466.09;5206327;27;33736;-89
2022/04/17 06:59:06;;;;;;;;;;;;;;;8.39;34.01;100471.94;5206624;27;33989;-89
2022/04/17 07:01:36;;;;;;;;;;;;;;;8.93;32.53;100468.03;5211506;27;34388;-89
2022/04/17 07:04:04;;;;;;;;;;;;;;;8.92;33.51;100479.25;5205583;27;33686;-91
2022/04/17 07:06:32;;;;;;;;;;;;;;;8.84;33.05;100477.44;5206184;27;34227;-89
2022/04/17 07:09:01;;;;;;;;;;;;;;;9.09;32.10;100470.72;5207087;27;33680;-92
2022/04/17 07:11:32;;;;;;;;;;;;;;;8.81;33.07;100467.94;5203286;27;35280;-89
2022/04/17 07:14:01;;;;;;;;;;;;;;;8.60;33.94;100475.56;5211269;27;34153;-89
2022/04/17 07:16:30;;;;;;;;;;;;;;;9.00;32.68;100468.94;5207437;27;33596;-88
2022/04/17 07:19:00;;;;;;;;;;;;;;;9.02;33.11;100474.13;5207113;27;33970;-91
2022/04/17 07:21:28;;;;;;;;;;;;;;;9.53;32.01;100468.31;5205661;27;33426;-91
2022/04/17 07:23:59;;;;;;;;;;;;;;;9.22;32.98;100471.63;5206270;27;33944;-90
2022/04/17 07:26:28;;;;;;;;;;;;;;;9.11;31.96;100469.88;5206584;27;33947;-89
2022/04/17 07:28:58;;;;;;;;;;;;;;;9.19;31.75;100468.19;5211226;27;34119;-89
2022/04/17 07:31:27;;;;;;;;;;;;;;;9.30;32.59;100469.94;5206198;27;34280;-93
2022/04/17 07:34:00;;;;;;;;;;;;;;;9.57;32.33;100464.88;5207365;27;32992;-92
2022/04/17 07:36:29;;;;;;;;;;;;;;;8.96;33.23;100470.66;5207397;27;34176;-90
2022/04/17 07:38:57;;;;;;;;;;;;;;;8.81;32.35;100465.38;5205935;27;34999;-89
2022/04/17 07:41:26;;;;;;;;;;;;;;;9.33;32.10;100473.44;5207416;27;33696;-92
2022/04/17 07:43:55;;;;;;;;;;;;;;;9.28;32.24;100469.94;5206263;27;33680;-91
2022/04/17 07:46:24;;;;;;;;;;;;;;;9.36;32.23;100460.47;5207394;27;33794;-92
2022/04/17 07:48:52;;;;;;;;;;;;;;;9.48;32.35;100459.66;5206063;27;33620;-90
2022/04/17 07:51:26;;;;;;;;;;;;;;;9.29;32.12;100456.12;5206527;27;34921;-90
2022/04/17 07:53:55;;;;;;;;;;;;;;;9.76;31.76;100458.03;5212748;27;34040;-90
2022/04/17 07:56:35;;;;;;;;;;;;;;;9.63;32.65;100453.66;5212402;27;35561;-90
2022/04/17 07:59:08;;;;;;;;;;;;;;;9.08;32.15;100458.63;5207200;27;33874;-89
2022/04/17 08:01:39;;;;;;;;;;;;;;;9.35;32.27;100452.69;5207933;27;34023;-89
2022/04/17 08:04:08;;;;;;;;;;;;;;;9.25;32.10;100451.78;5207346;27;33186;-92
2022/04/17 08:06:43;;;;;;;;;;;;;;;9.39;32.79;100447.53;5207349;27;34377;-90
2022/04/17 08:09:15;;;;;;;;;;;;;;;10.14;31.61;100452.03;5212237;27;34245;-89
2022/04/17 08:11:53;;;;;;;;;;;;;;;;;;;;;
2022/04/17 08:14:40;;;;;;;;;;;;;;;9.60;31.57;100445.91;5206268;27;34769;-90
2022/04/17 08:17:09;;;;;;;;;;;;;;;10.64;30.37;100438.22;5207517;27;34147;-89
2022/04/17 08:19:37;;;;;;;;;;;;;;;9.76;31.54;100439.00;5207590;27;33596;-90
2022/04/17 08:22:07;;;;;;;;;;;;;;;9.97;31.54;100440.78;5207310;27;34332;-89
2022/04/17 08:24:36;;;;;;;;;;;;;;;9.82;32.05;100434.72;5212115;27;33488;-89
2022/04/17 08:27:04;;;;;;;;;;;;;;;9.75;31.60;100430.37;5210466;27;33733;-90
2022/04/17 08:29:33;;;;;;;;;;;;;;;10.32;31.52;100443.44;5206807;27;34710;-91
2022/04/17 08:32:01;;;;;;;;;;;;;;;10.28;31.19;100438.22;5207351;27;33555;-89
2022/04/17 08:34:30;;;;;;;;;;;;;;;9.89;31.05;100434.72;5198018;27;34020;-90
2022/04/17 08:36:59;;;;;;;;;;;;;;;11.09;29.33;100435.53;5206806;27;34855;-90
2022/04/17 08:39:31;;;;;;;;;;;;;;;10.60;30.15;100422.66;5212842;27;34132;-91
2022/04/17 08:42:00;;;;;;;;;;;;;;;10.42;31.49;100427.00;5206151;27;34191;-90
2022/04/17 08:44:29;;;;;;;;;;;;;;;10.79;30.50;100419.16;5206618;27;33594;-90
2022/04/17 08:46:57;;;;;;;;;;;;;;;10.42;31.21;100426.16;5204978;27;34712;-91
2022/04/17 08:49:26;;;;;;;;;;;;;;;10.28;31.80;100427.84;5206420;27;34254;-90
2022/04/17 08:51:56;;;;;;;;;;;;;;;10.85;30.08;100426.94;5211925;27;34099;-90
2022/04/17 08:54:25;;;;;;;;;;;;;;;10.75;31.54;100419.16;5204974;27;33786;-90
2022/04/17 08:56:54;;;;;;;;;;;;;;;11.03;30.60;100418.22;5205968;27;34121;-89
2022/04/17 08:59:25;;;;;;;;;;;;;;;11.29;29.87;100399.09;5203857;27;34941;-90
2022/04/17 09:01:53;;;;;;;;;;;;;;;11.45;29.80;100399.84;5208477;27;33220;-90
2022/04/17 09:04:22;;;;;;;;;;;;;;;10.23;30.68;100399.31;5212608;27;33532;-89
2022/04/17 09:06:51;;;;;;;;;;;;;;;10.72;29.87;100401.00;5206232;27;34681;-89
2022/04/17 09:09:19;;;;;;;;;;;;;;;10.78;30.01;100390.63;5205885;27;34084;-90
2022/04/17 09:11:48;;;;;;;;;;;;;;;10.18;30.45;100391.53;5206182;27;34140;-89
2022/04/17 09:14:20;;;;;;;;;;;;;;;10.27;30.91;100390.69;5186642;27;34058;-92
2022/04/17 09:16:50;;;;;;;;;;;;;;;10.64;30.26;100386.31;5211763;27;33958;-90
2022/04/17 09:19:19;;;;;;;;;;;;;;;10.45;31.42;100385.50;5208953;27;33451;-89
2022/04/17 09:21:48;;;;;;;;;;;;;;;10.95;30.12;100390.56;5199348;27;34389;-87
2022/04/17 09:24:18;;;;;;;;;;;;;;;10.98;28.70;100386.22;5204344;27;32434;-90
2022/04/17 09:26:53;;;;;;;;;;;;;;;11.24;28.74;100380.06;5205468;27;34094;-90
2022/04/17 09:33:05;;;;;;;;;;;;;;;10.44;30.77;100382.91;5205601;27;35365;-93
2022/04/17 09:35:53;;;;;;;;;;;;;;;10.40;30.72;100376.84;5205917;27;33199;-88
2022/04/17 09:38:39;;;;;;;;;;;;;;;11.31;29.46;100355.78;5211358;27;33906;-90
2022/04/17 09:41:09;;;;;;;;;;;;;;;11.74;27.63;100353.78;5204789;27;34001;-88
2022/04/17 09:43:38;;;;;;;;;;;;;;;11.42;30.76;100355.72;5204403;27;36107;-88
2022/04/17 09:46:07;;;;;;;;;;;;;;;11.22;30.13;100358.44;5205120;27;33378;-90
2022/04/17 09:48:40;;;;;;;;;;;;;;;11.44;29.42;100354.81;5204815;27;34533;-89
2022/04/17 09:51:36;;;;;;;;;;;;;;;11.42;29.93;100347.91;5210302;27;33346;-92
2022/04/17 09:54:19;;;;;;;;;;;;;;;11.64;29.18;100343.44;5165256;27;33771;-91
2022/04/17 10:00:18;;;;;;;;;;;;;;;12.01;29.39;100336.25;5136098;27;34278;-92
2022/04/17 10:02:54;;;;;;;;;;;;;;;12.21;27.82;100323.06;5159983;27;34159;-88
2022/04/17 10:05:53;;;;;;;;;;;;;;;12.37;27.25;100339.38;5160277;27;35112;-91
2022/04/17 10:08:36;;;;;;;;;;;;;;;12.40;27.04;100326.34;5160455;27;33457;-89
2022/04/17 10:11:08;;;;;;;;;;;;;;;12.59;26.76;100325.28;5160775;27;34959;-91
2022/04/17 10:13:39;;;;;;;;;;;;;;;12.44;26.93;100314.16;5161355;27;33555;-89
2022/04/17 10:16:08;;;;;;;;;;;;;;;12.03;27.80;100315.41;5159652;27;34369;-88
2022/04/17 10:18:42;;;;;;;;;;;;;;;12.28;27.72;100321.28;5165910;27;33350;-90
2022/04/17 10:21:10;;;;;;;;;;;;;;;12.13;27.68;100309.28;5158931;27;33638;-90
2022/04/17 10:23:42;;;;;;;;;;;;;;;12.42;27.86;100308.97;5160167;27;33638;-87
2022/04/17 10:26:13;;;;;;;;;;;;;;;12.46;27.41;100299.38;5158381;27;33433;-88
2022/04/17 10:28:44;;;;;;;;;;;;;;;12.93;26.46;100287.56;5160746;27;33132;-90
2022/04/17 10:31:19;;;;;;;;;;;;;;;12.59;27.72;100288.81;5210540;27;34139;-89
2022/04/17 10:33:58;;;;;;;;;;;;;;;12.39;27.74;100288.19;5212224;27;35457;-90
2022/04/17 10:36:28;;;;;;;;;;;;;;;12.73;26.71;100286.06;5185094;27;34340;-91
2022/04/17 10:39:05;;;;;;;;;;;;;;;12.22;27.24;100285.75;5185450;27;34440;-88
2022/04/17 10:41:34;;;;;;;;;;;;;;;12.42;27.60;100295.97;5185016;27;34237;-92
2022/04/17 10:44:03;;;;;;;;;;;;;;;13.06;25.27;100272.59;5185317;27;34261;-91
2022/04/17 10:46:36;;;;;;;;;;;;;;;13.50;24.36;100268.50;5191254;27;34350;-91
2022/04/17 10:49:06;;;;;;;;;;;;;;;12.98;26.02;100270.97;5190198;27;34244;-90
2022/04/17 10:51:36;;;;;;;;;;;;;;;13.05;26.13;100271.75;5186144;27;34994;-88
2022/04/17 10:54:07;;;;;;;;;;;;;;;13.25;25.92;100271.47;5185396;27;34284;-89
2022/04/17 10:56:36;;;;;;;;;;;;;;;12.72;25.04;100284.31;5185770;27;34870;-88
2022/04/17 10:59:15;;;;;;;;;;;;;;;13.02;24.90;100276.97;5184589;27;33328;-89
2022/04/17 11:01:54;;;;;;;;;;;;;;;13.12;25.54;100268.19;5191368;27;34025;-89
2022/04/17 11:04:24;;;;;;;;;;;;;;;12.75;25.98;100263.44;5185563;27;34165;-89
2022/04/17 11:06:53;;;;;;;;;;;;;;;13.05;24.07;100266.53;5185907;27;32954;-90
2022/04/17 11:09:23;;;;;;;;;;;;;;;12.69;23.33;100260.09;5185976;27;33173;-92
2022/04/17 11:11:52;;;;;;;;;;;;;;;12.25;24.02;100248.44;5186100;27;34732;-88
2022/04/17 11:14:27;;;;;;;;;;;;;;;12.85;23.45;100252.91;5185749;27;34259;-91
2022/04/17 11:16:58;;;;;;;;;;;;;;;12.71;24.50;100246.16;5192212;27;34607;-92
2022/04/17 11:19:27;;;;;;;;;;;;;;;12.44;25.63;100242.12;5186071;27;34269;-89
2022/04/17 11:21:56;;;;;;;;;;;;;;;12.36;25.47;100239.63;5186811;27;34201;-91
2022/04/17 11:24:30;;;;;;;;;;;;;;;13.38;23.54;100220.03;5184144;27;36059;-91
2022/04/17 11:27:12;;;;;;;;;;;;;;;13.26;24.27;100218.44;5185892;27;34068;-90
2022/04/17 11:29:43;;;;;;;;;;;;;;;12.56;25.40;100226.41;5186565;27;33912;-88
2022/04/17 11:32:29;;;;;;;;;;;;;;;11.97;25.67;100230.53;5191869;27;34109;-89
2022/04/17 11:34:59;;;;;;;;;;;;;;;12.95;25.24;100228.47;5191092;27;32730;-89
2022/04/17 11:37:31;;;;;;;;;;;;;;;13.54;23.56;100212.84;5207468;27;34220;-91
2022/04/17 11:40:08;;;;;;;;;;;;;;;13.34;24.56;100218.38;5207483;27;33961;-87
2022/04/17 11:42:42;;;;;;;;;;;;;;;12.94;25.08;100214.59;5207681;27;33940;-88
2022/04/17 11:45:11;;;;;;;;;;;;;;;13.37;24.45;100220.94;5207612;27;34335;-88
2022/04/17 11:47:39;;;;;;;;;;;;;;;14.00;24.72;100217.22;5212857;27;34341;-89
2022/04/17 11:50:09;;;;;;;;;;;;;;;14.18;23.90;100211.66;5207259;27;33436;-89
2022/04/17 11:52:40;;;;;;;;;;;;;;;14.40;23.08;100204.25;5204441;27;33952;-92
2022/04/17 11:55:25;;;;;;;;;;;;;;;14.34;23.42;100208.75;5205896;27;33875;-92
2022/04/17 11:57:57;;;;;;;;;;;;;;;14.58;22.75;100216.09;5205868;27;34782;-89
2022/04/17 12:04:04;;;;;;;;;;;;;;;14.55;22.52;100205.72;5204488;27;34111;-89
2022/04/17 12:06:34;;;;;;;;;;;;;;;14.60;22.43;100197.78;5206337;27;35045;-88
2022/04/17 12:09:11;;;;;;;;;;;;;;;14.09;22.48;100193.56;5211913;27;34065;-92
2022/04/17 12:11:43;;;;;;;;;;;;;;;13.87;23.29;100211.38;5206220;27;33640;-92
2022/04/17 12:14:14;;;;;;;;;;;;;;;14.26;21.77;100185.41;5205864;27;34494;-90
2022/04/17 12:16:50;;;;;;;;;;;;;;;13.88;22.88;100192.22;5206306;27;34742;-89
2022/04/17 12:19:25;;;;;;;;;;;;;;;14.47;22.71;100190.19;5203456;27;33049;-92
2022/04/17 12:22:17;;;;;;;;;;;;;;;15.47;22.23;100171.34;5204091;27;33039;-91
2022/04/17 12:31:34;;;;;;;;;;;;;;;15.56;22.18;100181.59;5161055;27;34821;-89
2022/04/17 12:34:15;;;;;;;;;;;;;;;16.23;22.06;100180.66;5213042;27;33956;-93
2022/04/17 12:37:01;;;;;;;;;;;;;;;16.38;21.70;100165.38;5233732;27;34962;-91
2022/04/17 12:39:40;;;;;;;;;;;;;;;15.14;22.29;100181.75;5231445;27;35103;-93
2022/04/17 12:42:17;;;;;;;;;;;;;;;15.67;20.64;100165.59;5210737;27;34859;-89
2022/04/17 12:44:58;;;;;;;;;;;;;;;15.20;22.24;100158.09;5228900;27;34112;-92
2022/04/17 12:47:28;;;;;;;;;;;;;;;15.71;22.67;100154.19;5228356;27;33896;-89
2022/04/17 12:50:13;;;;;;;;;;;;;;;14.92;21.89;100163.09;5228947;27;34928;-90
2022/04/17 12:56:35;;;;;;;;;;;;;;;16.10;21.77;100147.00;5210630;27;33887;-90
2022/04/17 13:02:16;;;;;;;;;;;;;;;15.00;20.87;100140.25;5208885;27;34556;-90
2022/04/17 13:05:06;;;;;;;;;;;;;;;15.80;21.16;100133.00;5214587;27;35037;-89
2022/04/17 13:07:45;;;;;;;;;;;;;;;16.16;21.42;100125.91;5232654;27;32423;-90
2022/04/17 13:10:17;;;;;;;;;;;;;;;16.97;21.01;100114.69;5228559;27;34115;-89
2022/04/17 13:12:56;;;;;;;;;;;;;;;17.01;20.08;100120.66;5227868;27;35070;-91
2022/04/17 13:18:56;;;;;;;;;;;;;;;15.58;20.39;100117.88;5185086;27;32790;-91
2022/04/17 13:21:41;;;;;;;;;;;;;;;15.92;19.98;100124.84;5209128;27;34441;-92
2022/04/17 13:24:10;;;;;;;;;;;;;;;15.31;19.96;100115.97;5227729;27;34170;-88
2022/04/17 13:26:42;;;;;;;;;;;;;;;15.20;20.69;100120.62;5181203;27;782892;-89
2022/04/17 13:29:10;;;;;;;;;;;;;;;15.41;21.00;100113.97;5209848;27;33600;-90
2022/04/17 13:31:39;;;;;;;;;;;;;;;16.09;20.77;100107.78;5206046;27;34219;-89
2022/04/17 13:34:07;;;;;;;;;;;;;;;15.46;20.29;100106.88;5205990;27;34848;-90
2022/04/17 13:36:36;;;;;;;;;;;;;;;16.08;20.21;100098.22;5206973;27;36015;-90
2022/04/17 13:39:05;;;;;;;;;;;;;;;16.97;19.68;100091.09;5203917;27;33355;-89
2022/04/17 13:41:35;;;;;;;;;;;;;;;17.00;19.84;100095.38;5211627;27;34343;-89
2022/04/17 13:44:03;;;;;;;;;;;;;;;16.88;19.04;100086.16;5206503;27;34085;-89
2022/04/17 13:46:32;;;;;;;;;;;;;;;16.02;19.61;100086.19;5206032;27;34555;-88
2022/04/17 13:49:01;;;;;;;;;;;;;;;15.49;20.67;100091.13;5205142;27;34490;-91
2022/04/17 13:51:30;;;;;;;;;;;;;;;16.16;19.70;100081.41;5205729;27;33954;-91
2022/04/17 13:53:58;;;;;;;;;;;;;;;16.59;18.97;100081.81;5212368;27;33799;-88
2022/04/17 13:56:28;;;;;;;;;;;;;;;16.67;19.68;100071.94;5205592;27;33490;-90
2022/04/17 13:59:05;;;;;;;;;;;;;;;16.61;19.13;100065.16;5205248;27;33707;-90
2022/04/17 14:01:34;;;;;;;;;;;;;;;16.58;19.80;100080.13;5205938;27;34377;-89